createdAt,value
2018-04-13T00:01:03.841Z,7.63
2018-04-13T00:03:32.325Z,8.10
2018-04-13T00:06:00.836Z,7.87
2018-04-13T00:08:30.266Z,7.13
2018-04-13T00:10:58.857Z,7.70
2018-04-13T00:13:27.332Z,6.70
2018-04-13T00:15:56.680Z,6.83
2018-04-13T00:18:25.248Z,6.57
2018-04-13T00:20:53.745Z,6.93
2018-04-13T00:23:22.365Z,7.70
2018-04-13T00:25:52.412Z,7.70
2018-04-13T00:28:21.504Z,6.90
2018-04-13T00:30:50.764Z,7.33
2018-04-13T00:33:19.327Z,7.53
2018-04-13T00:35:47.805Z,7.10
2018-04-13T00:38:17.242Z,7.73
2018-04-13T00:40:45.732Z,6.93
2018-04-13T00:43:14.228Z,7.67
2018-04-13T00:45:43.468Z,8.30
2018-04-13T00:48:11.952Z,7.70
2018-04-13T00:50:40.424Z,7.30
2018-04-13T00:53:20.177Z,8.00
2018-04-13T00:55:48.717Z,8.73
2018-04-13T00:58:17.253Z,8.37
2018-04-13T01:00:45.381Z,7.90
2018-04-13T01:03:14.721Z,7.37
2018-04-13T01:05:44.650Z,9.50
2018-04-13T01:08:13.741Z,7.80
2018-04-13T01:10:42.242Z,8.47
2018-04-13T01:13:11.338Z,9.30
2018-04-13T01:15:39.831Z,9.60
2018-04-13T01:18:08.306Z,9.87
2018-04-13T01:20:36.805Z,10.27
2018-04-13T01:23:05.277Z,9.07
2018-04-13T01:25:33.529Z,8.00
2018-04-13T01:28:02.003Z,8.27
2018-04-13T01:30:30.493Z,8.73
2018-04-13T01:32:58.983Z,7.77
2018-04-13T01:35:27.484Z,8.97
2018-04-13T01:37:55.617Z,9.60
2018-04-13T01:40:24.109Z,9.03
2018-04-13T01:42:52.708Z,10.17
2018-04-13T01:45:21.198Z,8.93
2018-04-13T01:47:49.865Z,8.93
2018-04-13T01:50:18.337Z,9.00
2018-04-13T01:52:46.837Z,9.33
2018-04-13T01:55:15.320Z,8.17
2018-04-13T01:57:43.805Z,8.90
2018-04-13T02:00:12.332Z,8.53
2018-04-13T02:02:40.820Z,8.40
2018-04-13T02:05:10.744Z,8.17
2018-04-13T02:07:40.182Z,8.40
2018-04-13T02:10:08.778Z,8.90
2018-04-13T02:12:37.450Z,8.93
2018-04-13T02:15:06.042Z,9.57
2018-04-13T02:17:34.319Z,9.20
2018-04-13T02:20:02.816Z,9.97
2018-04-13T02:22:31.485Z,9.50
2018-04-13T02:25:00.022Z,10.77
2018-04-13T02:27:28.518Z,14.57
2018-04-13T02:29:57.977Z,14.40
2018-04-13T02:32:26.441Z,14.60
2018-04-13T02:34:54.929Z,14.40
2018-04-13T02:37:24.368Z,14.90
2018-04-13T02:39:52.865Z,14.90
2018-04-13T02:42:21.345Z,15.47
2018-04-13T02:44:49.913Z,15.90
2018-04-13T02:47:19.753Z,17.03
2018-04-13T02:49:49.564Z,15.53
2018-04-13T02:52:18.642Z,14.83
2018-04-13T02:54:48.861Z,13.70
2018-04-13T02:57:17.336Z,14.10
2018-04-13T02:59:45.809Z,14.73
2018-04-13T03:02:14.457Z,16.57
2018-04-13T03:04:42.973Z,16.47
2018-04-13T03:07:12.452Z,16.10
2018-04-13T03:09:41.067Z,17.30
2018-04-13T03:12:09.560Z,16.40
2018-04-13T03:14:38.129Z,16.57
2018-04-13T03:17:06.629Z,15.93
2018-04-13T03:19:34.785Z,16.17
2018-04-13T03:22:03.277Z,14.73
2018-04-13T03:24:31.842Z,16.07
2018-04-13T03:27:01.308Z,14.83
2018-04-13T03:29:30.021Z,18.20
2018-04-13T03:31:58.689Z,16.10
2018-04-13T03:34:28.015Z,15.03
2018-04-13T03:36:56.489Z,16.37
2018-04-13T03:39:24.989Z,17.63
2018-04-13T03:41:53.585Z,16.83
2018-04-13T03:44:22.121Z,16.67
2018-04-13T03:46:51.368Z,16.93
2018-04-13T03:49:19.857Z,16.90
2018-04-13T03:51:48.392Z,17.07
2018-04-13T03:54:17.679Z,17.77
2018-04-13T03:56:46.167Z,14.63
2018-04-13T03:59:15.433Z,16.33
2018-04-13T04:01:44.020Z,15.70
2018-04-13T04:04:12.515Z,16.20
2018-04-13T04:06:40.993Z,16.13
2018-04-13T04:09:09.472Z,15.17
2018-04-13T04:11:38.036Z,15.40
2018-04-13T04:14:06.578Z,16.37
2018-04-13T04:16:35.847Z,15.80
2018-04-13T04:19:04.325Z,16.07
2018-04-13T04:21:44.147Z,15.17
2018-04-13T04:24:24.923Z,16.90
2018-04-13T04:26:53.088Z,16.03
2018-04-13T04:29:21.584Z,16.50
2018-04-13T04:31:49.394Z,15.93
2018-04-13T04:34:18.666Z,16.87
2018-04-13T04:36:47.282Z,16.50
2018-04-13T04:39:16.552Z,17.80
2018-04-13T04:41:45.033Z,17.63
2018-04-13T04:44:13.602Z,16.10
2018-04-13T04:46:42.086Z,16.83
2018-04-13T04:49:11.206Z,17.37
2018-04-13T04:51:39.741Z,16.27
2018-04-13T04:54:08.345Z,19.63
2018-04-13T04:56:37.518Z,19.40
2018-04-13T04:59:06.965Z,19.50
2018-04-13T05:01:35.545Z,19.97
2018-04-13T05:04:03.806Z,18.03
2018-04-13T05:06:32.281Z,17.07
2018-04-13T05:09:00.908Z,18.77
2018-04-13T05:11:29.388Z,17.97
2018-04-13T05:13:57.865Z,17.80
2018-04-13T05:16:26.361Z,18.70
2018-04-13T05:18:54.844Z,17.97
2018-04-13T05:21:23.349Z,17.43
2018-04-13T05:23:52.596Z,17.50
2018-04-13T05:26:21.089Z,17.87
2018-04-13T05:28:49.593Z,17.53
2018-04-13T05:31:18.087Z,17.90
2018-04-13T05:33:46.658Z,16.37
2018-04-13T05:36:15.217Z,15.83
2018-04-13T05:38:43.697Z,15.27
2018-04-13T05:41:13.138Z,16.67
2018-04-13T05:43:41.625Z,16.70
2018-04-13T05:46:10.165Z,17.13
2018-04-13T05:48:38.750Z,15.93
2018-04-13T05:51:07.408Z,16.27
2018-04-13T05:53:36.656Z,17.80
2018-04-13T05:56:05.165Z,16.13
2018-04-13T05:58:34.453Z,18.40
2018-04-13T06:01:02.941Z,18.40
2018-04-13T06:03:31.433Z,17.60
2018-04-13T06:05:59.964Z,18.03
2018-04-13T06:08:29.414Z,16.77
2018-04-13T06:10:57.889Z,16.40
2018-04-13T06:13:26.390Z,16.60
2018-04-13T06:15:55.833Z,17.00
2018-04-13T06:18:24.317Z,17.47
2018-04-13T06:20:52.794Z,16.43
2018-04-13T06:23:21.306Z,18.10
2018-04-13T06:25:49.644Z,17.80
2018-04-13T06:28:19.077Z,15.73
2018-04-13T06:30:47.772Z,18.27
2018-04-13T06:33:16.257Z,17.33
2018-04-13T06:35:45.565Z,17.43
2018-04-13T06:38:14.148Z,18.87
2018-04-13T06:40:42.642Z,17.67
2018-04-13T06:43:12.021Z,17.80
2018-04-13T06:45:40.513Z,18.10
2018-04-13T06:48:08.997Z,17.27
2018-04-13T06:50:37.717Z,15.83
2018-04-13T06:53:06.210Z,16.67
2018-04-13T06:55:34.682Z,16.70
2018-04-13T06:58:03.334Z,16.37
2018-04-13T07:00:31.577Z,17.90
2018-04-13T07:03:00.704Z,16.20
2018-04-13T07:05:29.178Z,17.57
2018-04-13T07:07:58.167Z,16.73
2018-04-13T07:10:26.737Z,15.80
2018-04-13T07:12:55.993Z,15.93
2018-04-13T07:15:24.488Z,15.70
2018-04-13T07:17:53.041Z,16.10
2018-04-13T07:20:21.570Z,15.53
2018-04-13T07:22:50.087Z,15.53
2018-04-13T07:25:19.457Z,16.60
2018-04-13T07:27:47.950Z,16.50
2018-04-13T07:30:17.397Z,15.80
2018-04-13T07:32:46.018Z,15.93
2018-04-13T07:35:14.513Z,16.50
2018-04-13T07:37:43.044Z,15.43
2018-04-13T07:40:11.548Z,16.27
2018-04-13T07:42:40.017Z,16.37
2018-04-13T07:45:08.641Z,16.30
2018-04-13T07:47:37.185Z,17.10
2018-04-13T07:50:05.672Z,15.77
2018-04-13T07:52:34.165Z,16.67
2018-04-13T07:55:02.648Z,16.43
2018-04-13T07:57:31.133Z,17.10
2018-04-13T07:59:59.697Z,16.53
2018-04-13T08:02:28.206Z,16.47
2018-04-13T08:04:56.692Z,15.33
2018-04-13T08:07:25.197Z,17.30
2018-04-13T08:09:53.672Z,14.43
2018-04-13T08:12:22.219Z,14.47
2018-04-13T08:14:50.881Z,15.33
2018-04-13T08:17:19.373Z,15.50
2018-04-13T08:19:47.855Z,14.80
2018-04-13T08:22:16.485Z,15.47
2018-04-13T08:24:45.701Z,14.90
2018-04-13T08:27:15.005Z,14.83
2018-04-13T08:29:43.494Z,14.87
2018-04-13T08:32:12.850Z,13.63
2018-04-13T08:34:41.369Z,13.73
2018-04-13T08:37:09.861Z,13.50
2018-04-13T08:39:39.156Z,14.17
2018-04-13T08:42:07.404Z,13.53
2018-04-13T08:44:36.847Z,13.20
2018-04-13T08:47:05.371Z,13.10
2018-04-13T08:49:34.125Z,13.33
2018-04-13T08:52:03.426Z,14.20
2018-04-13T08:54:32.859Z,12.63
2018-04-13T08:57:01.438Z,13.53
2018-04-13T08:59:30.922Z,13.20
2018-04-13T09:02:00.201Z,14.40
2018-04-13T09:04:28.677Z,13.13
2018-04-13T09:06:57.217Z,14.83
2018-04-13T09:09:25.772Z,12.33
2018-04-13T09:11:55.041Z,12.30
2018-04-13T09:14:23.186Z,12.00
2018-04-13T09:16:51.726Z,12.63
2018-04-13T09:19:21.050Z,12.20
2018-04-13T09:21:49.531Z,13.20
2018-04-13T09:24:18.044Z,13.63
2018-04-13T09:26:46.547Z,11.90
2018-04-13T09:29:15.057Z,9.00
2018-04-13T09:31:44.369Z,8.63
2018-04-13T09:34:13.647Z,7.70
2018-04-13T09:36:42.205Z,9.10
2018-04-13T09:39:10.694Z,6.23
2018-04-13T09:41:39.313Z,5.70
2018-04-13T09:44:07.832Z,4.20
2018-04-13T09:46:36.325Z,3.80
2018-04-13T09:49:04.940Z,4.13
2018-04-13T09:51:33.452Z,3.63
2018-04-13T09:54:02.741Z,2.57
2018-04-13T09:56:31.376Z,2.20
2018-04-13T09:58:59.909Z,2.97
2018-04-13T10:01:43.021Z,2.60
2018-04-13T10:04:13.349Z,2.57
2018-04-13T10:06:41.821Z,2.33
2018-04-13T10:09:10.461Z,4.13
2018-04-13T10:11:39.709Z,2.37
2018-04-13T10:14:08.193Z,2.97
2018-04-13T10:16:36.787Z,2.90
2018-04-13T10:19:05.436Z,2.83
2018-04-13T10:21:33.941Z,3.40
2018-04-13T10:24:02.509Z,3.10
2018-04-13T10:26:31.049Z,4.07
2018-04-13T10:29:00.327Z,3.90
2018-04-13T10:31:28.825Z,4.40
2018-04-13T10:33:57.323Z,4.73
2018-04-13T10:36:26.612Z,4.37
2018-04-13T10:38:55.969Z,3.80
2018-04-13T10:41:24.481Z,4.33
2018-04-13T10:43:52.744Z,4.60
2018-04-13T10:46:21.301Z,4.67
2018-04-13T10:48:49.549Z,4.93
2018-04-13T10:51:18.786Z,5.03
2018-04-13T10:53:47.425Z,4.80
2018-04-13T10:56:15.977Z,5.47
2018-04-13T10:58:44.465Z,5.83
2018-04-13T11:01:13.001Z,7.70
2018-04-13T11:03:41.616Z,7.63
2018-04-13T11:06:10.265Z,8.10
2018-04-13T11:08:39.493Z,8.37
2018-04-13T11:11:07.897Z,8.07
2018-04-13T11:13:36.558Z,9.10
2018-04-13T11:16:05.057Z,8.90
2018-04-13T11:18:33.773Z,9.90
2018-04-13T11:21:02.412Z,9.77
2018-04-13T11:23:32.836Z,9.47
2018-04-13T11:26:01.470Z,8.97
2018-04-13T11:28:29.974Z,8.80
2018-04-13T11:30:59.318Z,7.60
2018-04-13T11:33:27.825Z,8.27
2018-04-13T11:35:56.519Z,7.97
2018-04-13T11:38:25.226Z,7.30
2018-04-13T11:40:54.494Z,7.00
2018-04-13T11:43:22.982Z,7.20
2018-04-13T11:45:51.631Z,7.63
2018-04-13T11:48:20.149Z,7.90
2018-04-13T11:50:48.621Z,6.57
2018-04-13T11:53:17.193Z,6.90
2018-04-13T11:55:45.706Z,6.30
2018-04-13T11:58:14.217Z,6.60
2018-04-13T12:00:43.311Z,6.23
2018-04-13T12:03:12.664Z,7.50
2018-04-13T12:05:41.155Z,7.70
2018-04-13T12:08:09.791Z,6.97
2018-04-13T12:10:39.238Z,6.60
2018-04-13T12:13:07.824Z,6.60
2018-04-13T12:15:36.464Z,6.57
2018-04-13T12:18:05.965Z,6.80
2018-04-13T12:20:35.222Z,5.83
2018-04-13T12:23:03.721Z,6.70
2018-04-13T12:25:31.730Z,6.40
2018-04-13T12:28:01.083Z,5.93
2018-04-13T12:30:29.573Z,6.10
2018-04-13T12:32:58.065Z,7.17
2018-04-13T12:35:27.337Z,6.30
2018-04-13T12:37:55.812Z,6.60
2018-04-13T12:40:24.408Z,6.60
2018-04-13T12:42:52.888Z,5.90
2018-04-13T12:45:21.486Z,6.07
2018-04-13T12:47:50.070Z,6.10
2018-04-13T12:50:18.340Z,6.10
2018-04-13T12:52:46.809Z,6.53
2018-04-13T12:55:15.342Z,5.87
2018-04-13T12:57:43.984Z,6.10
2018-04-13T13:00:12.586Z,5.60
2018-04-13T13:02:41.241Z,5.90
2018-04-13T13:05:09.777Z,5.90
2018-04-13T13:07:38.265Z,6.60
2018-04-13T13:10:06.801Z,5.30
2018-04-13T13:12:35.292Z,6.20
2018-04-13T13:15:03.758Z,5.10
2018-04-13T13:17:32.248Z,4.87
2018-04-13T13:20:00.755Z,4.90
2018-04-13T13:22:29.286Z,5.27
2018-04-13T13:24:58.525Z,5.70
2018-04-13T13:27:27.013Z,6.00
2018-04-13T13:29:55.645Z,5.37
2018-04-13T13:32:24.169Z,5.07
2018-04-13T13:34:52.632Z,5.57
2018-04-13T13:37:21.880Z,5.80
2018-04-13T13:39:50.402Z,4.87
2018-04-13T13:42:19.661Z,6.20
2018-04-13T13:44:48.178Z,4.90
2018-04-13T13:47:16.867Z,6.03
2018-04-13T13:49:45.366Z,5.60
2018-04-13T13:52:14.626Z,5.37
2018-04-13T13:54:43.105Z,5.73
2018-04-13T13:57:11.580Z,5.97
2018-04-13T13:59:40.068Z,6.47
2018-04-13T14:02:09.366Z,5.83
2018-04-13T14:04:37.849Z,5.83
2018-04-13T14:07:06.328Z,5.97
2018-04-13T14:09:34.838Z,5.83
2018-04-13T14:12:04.088Z,6.73
2018-04-13T14:14:32.668Z,6.33
2018-04-13T14:17:01.142Z,6.23
2018-04-13T14:19:29.649Z,7.20
2018-04-13T14:21:58.237Z,6.70
2018-04-13T14:24:26.710Z,6.97
2018-04-13T14:26:55.229Z,7.80
2018-04-13T14:29:23.776Z,8.90
2018-04-13T14:31:52.290Z,8.00
2018-04-13T14:34:20.854Z,7.90
2018-04-13T14:36:49.330Z,8.10
2018-04-13T14:39:21.011Z,7.20
2018-04-13T14:41:49.497Z,6.80
2018-04-13T14:44:17.993Z,6.60
2018-04-13T14:46:46.477Z,6.60
2018-04-13T14:49:15.839Z,6.67
2018-04-13T14:51:44.342Z,5.60
2018-04-13T14:54:12.853Z,6.20
2018-04-13T14:56:41.402Z,5.97
2018-04-13T14:59:10.085Z,5.80
2018-04-13T15:01:38.569Z,5.57
2018-04-13T15:04:06.885Z,5.40
2018-04-13T15:06:36.140Z,5.43
2018-04-13T15:09:04.065Z,5.47
2018-04-13T15:11:33.321Z,5.20
2018-04-13T15:14:01.797Z,5.50
2018-04-13T15:16:30.297Z,6.00
2018-04-13T15:18:58.876Z,5.57
2018-04-13T15:21:27.402Z,7.57
2018-04-13T15:23:56.663Z,5.23
2018-04-13T15:26:25.230Z,5.90
2018-04-13T15:28:53.713Z,5.40
2018-04-13T15:31:22.217Z,4.80
2018-04-13T15:33:50.694Z,5.37
2018-04-13T15:36:19.245Z,4.53
2018-04-13T15:38:47.825Z,4.70
2018-04-13T15:41:16.445Z,4.83
2018-04-13T15:43:44.917Z,4.70
2018-04-13T15:46:13.507Z,4.40
2018-04-13T15:48:42.001Z,4.60
2018-04-13T15:51:10.568Z,4.50
2018-04-13T15:53:39.151Z,6.37
2018-04-13T15:56:07.649Z,4.00
2018-04-13T15:58:35.805Z,4.37
2018-04-13T16:01:04.396Z,6.03
2018-04-13T16:03:32.910Z,3.97
2018-04-13T16:06:01.452Z,3.90
2018-04-13T16:08:29.618Z,3.20
2018-04-13T16:10:58.122Z,3.40
2018-04-13T16:13:26.400Z,4.07
2018-04-13T16:15:54.906Z,3.10
2018-04-13T16:18:23.372Z,4.10
2018-04-13T16:20:51.937Z,3.60
2018-04-13T16:23:20.425Z,3.37
2018-04-13T16:25:49.027Z,3.70
2018-04-13T16:28:17.661Z,3.30
2018-04-13T16:30:46.920Z,3.10
2018-04-13T16:33:15.446Z,3.10
2018-04-13T16:35:44.686Z,3.20
2018-04-13T16:38:13.170Z,3.00
2018-04-13T16:40:41.826Z,3.13
2018-04-13T16:43:11.025Z,2.60
2018-04-13T16:45:39.529Z,2.70
2018-04-13T16:48:07.710Z,2.77
2018-04-13T16:50:36.200Z,2.53
2018-04-13T16:53:04.717Z,2.83
2018-04-13T16:55:34.364Z,2.50
2018-04-13T16:58:02.891Z,2.30
2018-04-13T17:00:31.478Z,2.40
2018-04-13T17:03:00.012Z,2.20
2018-04-13T17:05:29.286Z,2.60
2018-04-13T17:07:57.796Z,2.37
2018-04-13T17:10:27.060Z,2.77
2018-04-13T17:12:56.531Z,2.80
2018-04-13T17:15:25.215Z,2.80
2018-04-13T17:17:53.714Z,2.83
2018-04-13T17:20:22.210Z,2.77
2018-04-13T17:22:50.788Z,2.70
2018-04-13T17:25:19.360Z,2.40
2018-04-13T17:27:47.927Z,2.30
2018-04-13T17:30:16.101Z,2.40
2018-04-13T17:32:44.672Z,2.60
2018-04-13T17:35:13.181Z,2.50
2018-04-13T17:37:41.721Z,2.63
2018-04-13T17:40:10.381Z,2.50
2018-04-13T17:42:38.886Z,2.33
2018-04-13T17:45:08.141Z,3.10
2018-04-13T17:47:36.729Z,2.47
2018-04-13T17:50:05.004Z,2.43
2018-04-13T17:52:33.367Z,2.30
2018-04-13T17:55:01.879Z,2.23
2018-04-13T17:57:30.401Z,2.70
2018-04-13T17:59:59.661Z,2.40
2018-04-13T18:02:29.693Z,2.57
2018-04-13T18:04:58.198Z,3.30
2018-04-13T18:07:27.449Z,4.37
2018-04-13T18:09:56.193Z,5.40
2018-04-13T18:12:25.462Z,8.03
2018-04-13T18:14:53.950Z,5.00
2018-04-13T18:17:23.388Z,3.17
2018-04-13T18:19:52.656Z,3.03
2018-04-13T18:22:21.157Z,2.43
2018-04-13T18:24:49.812Z,3.03
2018-04-13T18:27:18.307Z,3.87
2018-04-13T18:29:46.877Z,6.83
2018-04-13T18:32:15.411Z,11.80
2018-04-13T18:34:44.656Z,7.80
2018-04-13T18:37:13.161Z,7.03
2018-04-13T18:39:41.655Z,6.03
2018-04-13T18:42:11.011Z,5.20
2018-04-13T18:44:39.657Z,5.53
2018-04-13T18:47:08.677Z,4.67
2018-04-13T18:49:37.282Z,5.30
2018-04-13T18:52:05.450Z,6.33
2018-04-13T18:54:34.034Z,5.30
2018-04-13T18:57:02.541Z,6.20
2018-04-13T18:59:31.046Z,6.40
2018-04-13T19:02:00.317Z,5.70
2018-04-13T19:04:28.814Z,6.10
2018-04-13T19:06:57.465Z,5.03
2018-04-13T19:09:26.042Z,6.27
2018-04-13T19:11:55.402Z,5.20
2018-04-13T19:14:23.894Z,5.47
2018-04-13T19:16:53.170Z,5.63
2018-04-13T19:19:21.765Z,5.57
2018-04-13T19:21:50.320Z,4.67
2018-04-13T19:24:19.017Z,7.23
2018-04-13T19:26:47.510Z,6.10
2018-04-13T19:29:16.037Z,5.90
2018-04-13T19:31:45.306Z,6.63
2018-04-13T19:34:13.829Z,6.50
2018-04-13T19:36:43.195Z,6.23
2018-04-13T19:39:11.736Z,6.53
2018-04-13T19:41:40.227Z,6.97
2018-04-13T19:44:08.727Z,5.90
2018-04-13T19:46:37.278Z,5.40
2018-04-13T19:49:05.901Z,5.43
2018-04-13T19:51:34.390Z,6.20
2018-04-13T19:54:04.506Z,6.13
2018-04-13T19:56:33.026Z,6.30
2018-04-13T19:59:02.314Z,7.00
2018-04-13T20:01:30.953Z,7.77
2018-04-13T20:03:59.434Z,8.40
2018-04-13T20:06:28.033Z,6.77
2018-04-13T20:08:56.620Z,8.23
2018-04-13T20:11:25.109Z,8.20
2018-04-13T20:13:53.729Z,7.90
2018-04-13T20:16:22.723Z,9.10
2018-04-13T20:18:51.635Z,7.13
2018-04-13T20:21:20.158Z,8.53
2018-04-13T20:23:48.648Z,8.90
2018-04-13T20:26:17.173Z,9.57
2018-04-13T20:28:46.201Z,8.87
2018-04-13T20:31:14.704Z,9.43
2018-04-13T20:33:43.218Z,9.50
2018-04-13T20:36:11.869Z,10.03
2018-04-13T20:38:40.493Z,8.77
2018-04-13T20:41:09.815Z,9.00
2018-04-13T20:43:39.095Z,9.87
2018-04-13T20:46:08.313Z,10.67
2018-04-13T20:48:37.607Z,9.37
2018-04-13T20:51:06.955Z,9.70
2018-04-13T20:53:35.451Z,9.90
2018-04-13T20:56:03.954Z,9.80
2018-04-13T20:58:32.438Z,11.10
2018-04-13T21:01:01.185Z,10.40
2018-04-13T21:03:29.679Z,9.47
2018-04-13T21:05:58.180Z,9.50
2018-04-13T21:08:26.423Z,9.90
2018-04-13T21:10:54.934Z,9.83
2018-04-13T21:13:24.033Z,9.83
2018-04-13T21:15:52.621Z,9.80
2018-04-13T21:18:21.118Z,10.60
2018-04-13T21:20:49.637Z,9.87
2018-04-13T21:23:18.897Z,9.40
2018-04-13T21:25:47.442Z,10.23
2018-04-13T21:28:15.942Z,10.17
2018-04-13T21:30:44.433Z,9.50
2018-04-13T21:33:12.933Z,9.60
2018-04-13T21:35:41.490Z,10.57
2018-04-13T21:38:10.001Z,9.97
2018-04-13T21:40:39.259Z,10.97
2018-04-13T21:43:07.764Z,10.93
2018-04-13T21:45:36.453Z,11.10
2018-04-13T21:48:05.201Z,9.70
2018-04-13T21:50:33.905Z,10.27
2018-04-13T21:53:02.415Z,10.20
2018-04-13T21:55:30.997Z,10.30
2018-04-13T21:57:59.485Z,9.67
2018-04-13T22:00:27.978Z,8.87
2018-04-13T22:02:56.546Z,10.20
2018-04-13T22:05:25.054Z,9.77
2018-04-13T22:07:53.288Z,10.80
2018-04-13T22:10:21.800Z,9.90
2018-04-13T22:13:02.217Z,9.83
2018-04-13T22:15:30.700Z,10.00
2018-04-13T22:17:59.242Z,10.27
2018-04-13T22:20:27.833Z,9.90
2018-04-13T22:22:56.317Z,10.40
2018-04-13T22:25:25.573Z,10.67
2018-04-13T22:27:54.105Z,10.13
2018-04-13T22:30:23.380Z,10.50
2018-04-13T22:32:51.944Z,10.40
2018-04-13T22:35:20.440Z,10.77
2018-04-13T22:37:48.681Z,9.10
2018-04-13T22:40:17.161Z,9.60
2018-04-13T22:42:46.697Z,9.73
2018-04-13T22:45:15.176Z,9.53
2018-04-13T22:47:43.667Z,9.33
2018-04-13T22:50:12.345Z,9.50
2018-04-13T22:52:40.836Z,10.27
2018-04-13T22:55:09.305Z,9.10
2018-04-13T22:57:37.814Z,9.80
2018-04-13T23:00:06.316Z,8.97
2018-04-13T23:02:34.781Z,9.23
2018-04-13T23:05:03.278Z,7.80
2018-04-13T23:07:31.871Z,7.77
2018-04-13T23:10:00.333Z,8.23
2018-04-13T23:12:28.821Z,8.60
2018-04-13T23:14:57.281Z,8.20
2018-04-13T23:17:25.762Z,7.63
2018-04-13T23:19:54.248Z,7.60
2018-04-13T23:22:33.986Z,7.30
2018-04-13T23:25:02.480Z,7.00
2018-04-13T23:27:31.043Z,7.00
2018-04-13T23:29:59.541Z,7.97
2018-04-13T23:32:28.017Z,6.90
2018-04-13T23:34:56.592Z,8.03
2018-04-13T23:37:25.064Z,7.80
2018-04-13T23:39:53.561Z,8.50
2018-04-13T23:42:22.139Z,7.60
2018-04-13T23:44:50.640Z,7.60
2018-04-13T23:47:19.267Z,8.87
2018-04-13T23:49:48.498Z,7.10
2018-04-13T23:52:17.100Z,7.67
2018-04-13T23:54:45.640Z,8.10
2018-04-13T23:57:14.907Z,8.50
2018-04-13T23:59:43.373Z,8.70
